sensor_id;sensor_type;location;lat;lon;timestamp;pressure;altitude;pressure_sealevel;temperature;humidity
66479;BME280;53294;47.912;13.526;2024-01-30T00:02:02;97659.53;;;-1.86;76.31
66479;BME280;53294;47.912;13.526;2024-01-30T00:04:29;97663.78;;;-1.85;76.04
66479;BME280;53294;47.912;13.526;2024-01-30T00:06:56;97670.69;;;-1.84;75.88
66479;BME280;53294;47.912;13.526;2024-01-30T00:09:23;97664.81;;;-1.86;75.18
66479;BME280;53294;47.912;13.526;2024-01-30T00:11:50;97658.69;;;-1.87;75.70
66479;BME280;53294;47.912;13.526;2024-01-30T00:14:17;97661.50;;;-1.88;75.09
66479;BME280;53294;47.912;13.526;2024-01-30T00:16:44;97663.69;;;-1.92;75.51
66479;BME280;53294;47.912;13.526;2024-01-30T00:19:11;97668.22;;;-2.01;76.33
66479;BME280;53294;47.912;13.526;2024-01-30T00:21:38;97663.09;;;-2.17;77.84
66479;BME280;53294;47.912;13.526;2024-01-30T00:24:05;97672.53;;;-2.23;79.05
66479;BME280;53294;47.912;13.526;2024-01-30T00:26:31;97666.16;;;-2.28;79.67
66479;BME280;53294;47.912;13.526;2024-01-30T00:28:58;97669.63;;;-2.28;80.17
66479;BME280;53294;47.912;13.526;2024-01-30T00:31:25;97677.25;;;-2.18;80.16
66479;BME280;53294;47.912;13.526;2024-01-30T00:33:52;97680.84;;;-2.11;78.70
66479;BME280;53294;47.912;13.526;2024-01-30T00:36:19;97682.28;;;-2.08;79.50
66479;BME280;53294;47.912;13.526;2024-01-30T00:38:45;97674.38;;;-2.08;79.52
66479;BME280;53294;47.912;13.526;2024-01-30T00:41:12;97679.00;;;-2.10;79.77
66479;BME280;53294;47.912;13.526;2024-01-30T00:43:39;97681.91;;;-2.05;79.39
66479;BME280;53294;47.912;13.526;2024-01-30T00:46:05;97680.94;;;-2.04;79.04
66479;BME280;53294;47.912;13.526;2024-01-30T00:48:32;97675.31;;;-2.01;78.85
66479;BME280;53294;47.912;13.526;2024-01-30T00:50:59;97684.84;;;-2.00;79.16
66479;BME280;53294;47.912;13.526;2024-01-30T00:53:26;97691.63;;;-2.06;79.02
66479;BME280;53294;47.912;13.526;2024-01-30T00:55:53;97681.53;;;-2.17;79.73
66479;BME280;53294;47.912;13.526;2024-01-30T00:58:19;97687.94;;;-2.35;80.44
66479;BME280;53294;47.912;13.526;2024-01-30T01:00:46;97681.38;;;-2.39;81.29
66479;BME280;53294;47.912;13.526;2024-01-30T01:03:13;97678.09;;;-2.41;81.65
66479;BME280;53294;47.912;13.526;2024-01-30T01:05:40;97681.03;;;-2.36;81.33
66479;BME280;53294;47.912;13.526;2024-01-30T01:08:07;97676.69;;;-2.28;80.93
66479;BME280;53294;47.912;13.526;2024-01-30T01:10:34;97679.44;;;-2.22;80.41
66479;BME280;53294;47.912;13.526;2024-01-30T01:13:00;97677.25;;;-2.18;80.35
66479;BME280;53294;47.912;13.526;2024-01-30T01:15:27;97667.72;;;-2.19;79.64
66479;BME280;53294;47.912;13.526;2024-01-30T01:17:56;97669.34;;;-2.18;78.82
66479;BME280;53294;47.912;13.526;2024-01-30T01:20:22;97666.72;;;-2.18;78.94
66479;BME280;53294;47.912;13.526;2024-01-30T01:22:49;97665.75;;;-2.17;78.62
66479;BME280;53294;47.912;13.526;2024-01-30T01:25:16;97670.00;;;-2.16;78.85
66479;BME280;53294;47.912;13.526;2024-01-30T01:27:43;97660.66;;;-2.19;78.05
66479;BME280;53294;47.912;13.526;2024-01-30T01:30:11;97665.75;;;-2.17;78.25
66479;BME280;53294;47.912;13.526;2024-01-30T01:32:41;97665.75;;;-2.17;76.80
66479;BME280;53294;47.912;13.526;2024-01-30T01:35:15;97664.28;;;-2.20;76.49
66479;BME280;53294;47.912;13.526;2024-01-30T01:37:42;97661.19;;;-2.23;76.30
66479;BME280;53294;47.912;13.526;2024-01-30T01:40:09;97664.44;;;-2.21;75.70
66479;BME280;53294;47.912;13.526;2024-01-30T01:42:36;97666.63;;;-2.25;75.72
66479;BME280;53294;47.912;13.526;2024-01-30T01:45:03;97666.16;;;-2.28;75.25
66479;BME280;53294;47.912;13.526;2024-01-30T01:47:29;97669.34;;;-2.33;76.45
66479;BME280;53294;47.912;13.526;2024-01-30T01:49:56;97665.22;;;-2.36;76.37
66479;BME280;53294;47.912;13.526;2024-01-30T01:52:23;97663.94;;;-2.40;75.68
66479;BME280;53294;47.912;13.526;2024-01-30T01:54:50;97662.31;;;-2.41;76.08
66479;BME280;53294;47.912;13.526;2024-01-30T01:57:17;97664.13;;;-2.41;75.98
66479;BME280;53294;47.912;13.526;2024-01-30T01:59:44;97669.19;;;-2.40;75.73
66479;BME280;53294;47.912;13.526;2024-01-30T02:02:11;97667.22;;;-2.38;76.12
66479;BME280;53294;47.912;13.526;2024-01-30T02:04:39;97663.94;;;-2.40;75.99
66479;BME280;53294;47.912;13.526;2024-01-30T02:07:06;97661.97;;;-2.38;75.24
66479;BME280;53294;47.912;13.526;2024-01-30T02:09:33;97669.63;;;-2.51;76.28
66479;BME280;53294;47.912;13.526;2024-01-30T02:12:00;97669.00;;;-2.53;76.33
66479;BME280;53294;47.912;13.526;2024-01-30T02:14:26;97672.31;;;-2.59;77.34
66479;BME280;53294;47.912;13.526;2024-01-30T02:16:56;97667.69;;;-2.57;77.04
66479;BME280;53294;47.912;13.526;2024-01-30T02:19:23;97669.53;;;-2.66;77.77
66479;BME280;53294;47.912;13.526;2024-01-30T02:21:50;97669.53;;;-2.66;77.84
66479;BME280;53294;47.912;13.526;2024-01-30T02:24:17;97676.00;;;-2.68;77.67
66479;BME280;53294;47.912;13.526;2024-01-30T02:26:44;97672.34;;;-2.67;77.85
66479;BME280;53294;47.912;13.526;2024-01-30T02:29:11;97674.34;;;-2.69;77.48
66479;BME280;53294;47.912;13.526;2024-01-30T02:31:37;97680.66;;;-2.79;77.89
66479;BME280;53294;47.912;13.526;2024-01-30T02:34:04;97675.44;;;-2.87;78.07
66479;BME280;53294;47.912;13.526;2024-01-30T02:36:31;97677.28;;;-2.96;78.08
66479;BME280;53294;47.912;13.526;2024-01-30T02:38:57;97680.72;;;-2.95;78.34
66479;BME280;53294;47.912;13.526;2024-01-30T02:41:24;97672.88;;;-3.03;78.78
66479;BME280;53294;47.912;13.526;2024-01-30T02:43:51;97679.91;;;-2.96;78.83
66479;BME280;53294;47.912;13.526;2024-01-30T02:46:17;97673.16;;;-2.90;77.65
66479;BME280;53294;47.912;13.526;2024-01-30T02:48:44;97664.91;;;-2.87;76.67
66479;BME280;53294;47.912;13.526;2024-01-30T02:51:11;97669.16;;;-2.86;76.65
66479;BME280;53294;47.912;13.526;2024-01-30T02:53:38;97660.28;;;-2.85;76.33
66479;BME280;53294;47.912;13.526;2024-01-30T02:56:05;97663.91;;;-2.86;75.23
66479;BME280;53294;47.912;13.526;2024-01-30T02:58:32;97664.25;;;-2.89;75.09
66479;BME280;53294;47.912;13.526;2024-01-30T03:00:59;97659.88;;;-2.97;75.89
66479;BME280;53294;47.912;13.526;2024-01-30T03:03:26;97662.03;;;-3.00;76.81
66479;BME280;53294;47.912;13.526;2024-01-30T03:05:53;97663.69;;;-2.99;76.69
66479;BME280;53294;47.912;13.526;2024-01-30T03:08:20;97674.53;;;-3.02;75.65
66479;BME280;53294;47.912;13.526;2024-01-30T03:10:47;97664.38;;;-3.05;74.67
66479;BME280;53294;47.912;13.526;2024-01-30T03:13:14;97666.53;;;-3.09;75.35
66479;BME280;53294;47.912;13.526;2024-01-30T03:15:40;97665.06;;;-3.12;75.80
66479;BME280;53294;47.912;13.526;2024-01-30T03:18:07;97663.41;;;-3.13;76.26
66479;BME280;53294;47.912;13.526;2024-01-30T03:20:34;97662.59;;;-3.13;76.14
66479;BME280;53294;47.912;13.526;2024-01-30T03:23:00;97663.09;;;-3.18;76.78
66479;BME280;53294;47.912;13.526;2024-01-30T03:25:27;97663.16;;;-3.26;77.38
66479;BME280;53294;47.912;13.526;2024-01-30T03:27:54;97659.16;;;-3.22;76.71
66479;BME280;53294;47.912;13.526;2024-01-30T03:30:21;97662.63;;;-3.21;76.45
66479;BME280;53294;47.912;13.526;2024-01-30T03:32:47;97662.63;;;-3.21;75.96
66479;BME280;53294;47.912;13.526;2024-01-30T03:35:14;97659.50;;;-3.25;76.67
66479;BME280;53294;47.912;13.526;2024-01-30T03:37:41;97655.91;;;-3.24;76.92
66479;BME280;53294;47.912;13.526;2024-01-30T03:40:08;97664.78;;;-3.25;77.18
66479;BME280;53294;47.912;13.526;2024-01-30T03:42:35;97664.78;;;-3.25;77.60
66479;BME280;53294;47.912;13.526;2024-01-30T03:45:02;97661.50;;;-3.27;77.73
66479;BME280;53294;47.912;13.526;2024-01-30T03:47:29;97662.81;;;-3.23;78.20
66479;BME280;53294;47.912;13.526;2024-01-30T03:49:56;97672.97;;;-3.20;78.36
66479;BME280;53294;47.912;13.526;2024-01-30T03:52:22;97669.34;;;-3.19;77.91
66479;BME280;53294;47.912;13.526;2024-01-30T03:54:49;97663.16;;;-3.26;78.41
66479;BME280;53294;47.912;13.526;2024-01-30T03:57:16;97669.91;;;-3.32;79.56
66479;BME280;53294;47.912;13.526;2024-01-30T03:59:43;97675.97;;;-3.23;80.05
66479;BME280;53294;47.912;13.526;2024-01-30T04:02:10;97670.88;;;-3.25;79.76
66479;BME280;53294;47.912;13.526;2024-01-30T04:04:38;97665.78;;;-3.26;79.45
66479;BME280;53294;47.912;13.526;2024-01-30T04:07:05;97666.03;;;-3.13;79.42
66479;BME280;53294;47.912;13.526;2024-01-30T04:09:32;97671.28;;;-3.04;79.95
66479;BME280;53294;47.912;13.526;2024-01-30T04:11:59;97664.75;;;-3.17;79.76
66479;BME280;53294;47.912;13.526;2024-01-30T04:14:26;97660.44;;;-3.10;80.94
66479;BME280;53294;47.912;13.526;2024-01-30T04:16:52;97658.63;;;-3.09;82.04
66479;BME280;53294;47.912;13.526;2024-01-30T04:19:19;97652.19;;;-3.07;82.65
66479;BME280;53294;47.912;13.526;2024-01-30T04:21:46;97659.06;;;-2.97;83.31
66479;BME280;53294;47.912;13.526;2024-01-30T04:24:13;97656.53;;;-2.91;83.10
66479;BME280;53294;47.912;13.526;2024-01-30T04:26:39;97647.78;;;-2.83;83.23
66479;BME280;53294;47.912;13.526;2024-01-30T04:29:06;97655.50;;;-2.81;83.23
66479;BME280;53294;47.912;13.526;2024-01-30T04:31:33;97652.69;;;-2.80;82.95
66479;BME280;53294;47.912;13.526;2024-01-30T04:34:00;97660.91;;;-2.75;82.87
66479;BME280;53294;47.912;13.526;2024-01-30T04:36:26;97656.91;;;-2.71;82.30
66479;BME280;53294;47.912;13.526;2024-01-30T04:38:53;97663.13;;;-2.63;81.80
66479;BME280;53294;47.912;13.526;2024-01-30T04:41:20;97654.25;;;-2.62;81.65
66479;BME280;53294;47.912;13.526;2024-01-30T04:43:46;97660.44;;;-2.55;81.75
66479;BME280;53294;47.912;13.526;2024-01-30T04:46:13;97659.56;;;-2.47;81.74
66479;BME280;53294;47.912;13.526;2024-01-30T04:48:40;97654.94;;;-2.45;81.86
66479;BME280;53294;47.912;13.526;2024-01-30T04:51:07;97662.66;;;-2.44;82.64
66479;BME280;53294;47.912;13.526;2024-01-30T04:53:33;97650.16;;;-2.42;81.73
66479;BME280;53294;47.912;13.526;2024-01-30T04:56:00;97656.03;;;-2.40;81.48
66479;BME280;53294;47.912;13.526;2024-01-30T04:58:26;97649.34;;;-2.42;80.51
66479;BME280;53294;47.912;13.526;2024-01-30T05:00:53;97660.31;;;-2.39;80.72
66479;BME280;53294;47.912;13.526;2024-01-30T05:03:20;97663.38;;;-2.50;80.47
66479;BME280;53294;47.912;13.526;2024-01-30T05:05:49;97663.06;;;-2.55;80.45
66479;BME280;53294;47.912;13.526;2024-01-30T05:08:16;97658.16;;;-2.58;80.97
66479;BME280;53294;47.912;13.526;2024-01-30T05:10:42;97657.97;;;-2.80;81.24
66479;BME280;53294;47.912;13.526;2024-01-30T05:13:09;97658.91;;;-2.73;82.12
66479;BME280;53294;47.912;13.526;2024-01-30T05:15:36;97653.41;;;-2.63;82.01
66479;BME280;53294;47.912;13.526;2024-01-30T05:18:03;97659.25;;;-2.76;82.56
66479;BME280;53294;47.912;13.526;2024-01-30T05:20:30;97665.13;;;-2.65;82.92
66479;BME280;53294;47.912;13.526;2024-01-30T05:22:57;97665.34;;;-2.52;83.16
66479;BME280;53294;47.912;13.526;2024-01-30T05:25:23;97663.94;;;-2.40;82.85
66479;BME280;53294;47.912;13.526;2024-01-30T05:27:50;97665.16;;;-2.27;83.17
66479;BME280;53294;47.912;13.526;2024-01-30T05:30:17;97671.00;;;-2.17;83.42
66479;BME280;53294;47.912;13.526;2024-01-30T05:32:44;97673.91;;;-2.12;82.99
66479;BME280;53294;47.912;13.526;2024-01-30T05:35:11;97674.19;;;-2.07;82.64
66479;BME280;53294;47.912;13.526;2024-01-30T05:37:37;97673.84;;;-2.04;82.68
66479;BME280;53294;47.912;13.526;2024-01-30T05:40:04;97680.22;;;-1.98;82.34
66479;BME280;53294;47.912;13.526;2024-01-30T05:42:31;97678.03;;;-1.94;81.99
66479;BME280;53294;47.912;13.526;2024-01-30T05:44:58;97679.31;;;-1.90;81.63
66479;BME280;53294;47.912;13.526;2024-01-30T05:47:25;97676.34;;;-1.87;81.96
66479;BME280;53294;47.912;13.526;2024-01-30T05:49:51;97681.25;;;-1.84;81.75
66479;BME280;53294;47.912;13.526;2024-01-30T05:52:18;97689.59;;;-1.81;81.44
66479;BME280;53294;47.912;13.526;2024-01-30T05:54:45;97682.53;;;-1.80;81.51
66479;BME280;53294;47.912;13.526;2024-01-30T05:57:12;97688.44;;;-1.78;81.30
66479;BME280;53294;47.912;13.526;2024-01-30T05:59:39;97682.44;;;-1.72;81.28
66479;BME280;53294;47.912;13.526;2024-01-30T06:02:07;97687.97;;;-1.67;80.90
66479;BME280;53294;47.912;13.526;2024-01-30T06:04:34;97690.97;;;-1.70;79.57
66479;BME280;53294;47.912;13.526;2024-01-30T06:07:01;97689.53;;;-1.72;77.96
66479;BME280;53294;47.912;13.526;2024-01-30T06:09:28;97683.97;;;-1.77;76.64
66479;BME280;53294;47.912;13.526;2024-01-30T06:11:55;97680.88;;;-1.81;76.45
66479;BME280;53294;47.912;13.526;2024-01-30T06:14:22;97683.06;;;-1.85;76.12
66479;BME280;53294;47.912;13.526;2024-01-30T06:16:49;97689.22;;;-1.92;76.35
66479;BME280;53294;47.912;13.526;2024-01-30T06:19:15;97688.81;;;-2.04;76.79
66479;BME280;53294;47.912;13.526;2024-01-30T06:21:42;97693.28;;;-2.05;76.76
66479;BME280;53294;47.912;13.526;2024-01-30T06:24:09;97697.00;;;-1.99;76.74
66479;BME280;53294;47.912;13.526;2024-01-30T06:26:35;97696.81;;;-1.98;76.63
66479;BME280;53294;47.912;13.526;2024-01-30T06:29:02;97697.84;;;-1.99;75.96
66479;BME280;53294;47.912;13.526;2024-01-30T06:31:29;97701.19;;;-2.05;76.37
66479;BME280;53294;47.912;13.526;2024-01-30T06:33:56;97704.53;;;-2.11;76.30
66479;BME280;53294;47.912;13.526;2024-01-30T06:36:23;97711.50;;;-2.18;76.69
66479;BME280;53294;47.912;13.526;2024-01-30T06:38:49;97714.66;;;-2.23;77.24
66479;BME280;53294;47.912;13.526;2024-01-30T06:41:16;97715.09;;;-2.19;76.86
66479;BME280;53294;47.912;13.526;2024-01-30T06:43:43;97709.97;;;-2.12;76.63
66479;BME280;53294;47.912;13.526;2024-01-30T06:46:11;97701.19;;;-2.05;76.14
66479;BME280;53294;47.912;13.526;2024-01-30T06:48:39;97700.66;;;-2.00;76.37
66479;BME280;53294;47.912;13.526;2024-01-30T06:51:07;97705.75;;;-1.99;76.72
66479;BME280;53294;47.912;13.526;2024-01-30T06:53:33;97706.38;;;-1.96;77.12
66479;BME280;53294;47.912;13.526;2024-01-30T06:56:00;97706.38;;;-1.96;77.17
66479;BME280;53294;47.912;13.526;2024-01-30T06:58:27;97710.31;;;-1.92;77.53
66479;BME280;53294;47.912;13.526;2024-01-30T07:00:54;97702.84;;;-1.89;78.21
66479;BME280;53294;47.912;13.526;2024-01-30T07:03:21;97702.84;;;-1.89;78.98
66479;BME280;53294;47.912;13.526;2024-01-30T07:05:48;97710.56;;;-1.87;79.72
66479;BME280;53294;47.912;13.526;2024-01-30T07:08:15;97705.31;;;-1.87;80.40
66479;BME280;53294;47.912;13.526;2024-01-30T07:10:44;97707.50;;;-1.76;80.35
66479;BME280;53294;47.912;13.526;2024-01-30T07:13:11;97703.97;;;-1.68;80.91
66479;BME280;53294;47.912;13.526;2024-01-30T07:15:38;97708.16;;;-1.59;81.13
66479;BME280;53294;47.912;13.526;2024-01-30T07:18:05;97715.16;;;-1.51;80.50
66479;BME280;53294;47.912;13.526;2024-01-30T07:20:32;97706.97;;;-1.41;79.67
66479;BME280;53294;47.912;13.526;2024-01-30T07:22:59;97708.09;;;-1.36;79.29
66479;BME280;53294;47.912;13.526;2024-01-30T07:25:25;97706.72;;;-1.32;78.61
66479;BME280;53294;47.912;13.526;2024-01-30T07:27:56;97714.28;;;-1.29;77.61
66479;BME280;53294;47.912;13.526;2024-01-30T07:30:24;97717.53;;;-1.27;77.32
66479;BME280;53294;47.912;13.526;2024-01-30T07:32:50;97713.19;;;-1.19;76.20
66479;BME280;53294;47.912;13.526;2024-01-30T07:35:17;97722.16;;;-1.14;75.80
66479;BME280;53294;47.912;13.526;2024-01-30T07:37:44;97717.38;;;-1.10;75.24
66479;BME280;53294;47.912;13.526;2024-01-30T07:40:11;97724.56;;;-1.04;74.24
66479;BME280;53294;47.912;13.526;2024-01-30T07:42:37;97724.00;;;-0.99;74.16
66479;BME280;53294;47.912;13.526;2024-01-30T07:45:05;97729.78;;;-0.89;73.24
66479;BME280;53294;47.912;13.526;2024-01-30T07:47:31;97731.50;;;-0.81;73.17
66479;BME280;53294;47.912;13.526;2024-01-30T07:49:59;97722.03;;;-0.76;73.28
66479;BME280;53294;47.912;13.526;2024-01-30T07:52:26;97723.28;;;-0.72;72.62
66479;BME280;53294;47.912;13.526;2024-01-30T07:54:53;97727.03;;;-0.66;72.38
66479;BME280;53294;47.912;13.526;2024-01-30T07:57:19;97730.94;;;-0.62;72.58
66479;BME280;53294;47.912;13.526;2024-01-30T07:59:46;97728.00;;;-0.52;72.23
66479;BME280;53294;47.912;13.526;2024-01-30T08:02:13;97724.41;;;-0.44;72.31
66479;BME280;53294;47.912;13.526;2024-01-30T08:04:40;97723.53;;;-0.30;72.31
66479;BME280;53294;47.912;13.526;2024-01-30T08:07:07;97722.03;;;-0.17;72.62
66479;BME280;53294;47.912;13.526;2024-01-30T08:09:34;97723.22;;;0.02;73.39
66479;BME280;53294;47.912;13.526;2024-01-30T08:12:01;97727.66;;;0.23;74.60
66479;BME280;53294;47.912;13.526;2024-01-30T08:14:28;97728.16;;;0.33;75.22
66479;BME280;53294;47.912;13.526;2024-01-30T08:16:54;97720.19;;;0.55;75.13
66479;BME280;53294;47.912;13.526;2024-01-30T08:19:22;97721.56;;;0.85;74.92
66479;BME280;53294;47.912;13.526;2024-01-30T08:21:48;97732.31;;;1.12;74.32
66479;BME280;53294;47.912;13.526;2024-01-30T08:24:15;97729.38;;;1.00;73.70
66479;BME280;53294;47.912;13.526;2024-01-30T08:26:42;97723.72;;;1.10;74.34
66479;BME280;53294;47.912;13.526;2024-01-30T08:29:09;97721.19;;;0.88;74.85
66479;BME280;53294;47.912;13.526;2024-01-30T08:31:36;97729.59;;;0.64;75.10
66479;BME280;53294;47.912;13.526;2024-01-30T08:34:03;97731.69;;;0.18;77.22
66479;BME280;53294;47.912;13.526;2024-01-30T08:36:30;97733.59;;;0.03;79.05
66479;BME280;53294;47.912;13.526;2024-01-30T08:38:56;97741.84;;;0.15;79.17
66479;BME280;53294;47.912;13.526;2024-01-30T08:41:29;97732.31;;;0.42;78.87
66479;BME280;53294;47.912;13.526;2024-01-30T08:43:56;97729.88;;;0.47;77.79
66479;BME280;53294;47.912;13.526;2024-01-30T08:46:23;97729.53;;;0.57;78.28
66479;BME280;53294;47.912;13.526;2024-01-30T08:48:50;97731.66;;;0.68;77.94
66479;BME280;53294;47.912;13.526;2024-01-30T08:51:17;97720.34;;;0.81;77.62
66479;BME280;53294;47.912;13.526;2024-01-30T08:53:44;97727.22;;;0.76;76.84
66479;BME280;53294;47.912;13.526;2024-01-30T08:56:10;97723.03;;;0.95;76.67
66479;BME280;53294;47.912;13.526;2024-01-30T08:58:37;97720.47;;;1.08;76.28
66479;BME280;53294;47.912;13.526;2024-01-30T09:01:05;97719.50;;;1.22;75.85
66479;BME280;53294;47.912;13.526;2024-01-30T09:03:32;97726.72;;;1.42;75.35
66479;BME280;53294;47.912;13.526;2024-01-30T09:05:59;97721.41;;;1.42;75.48
66479;BME280;53294;47.912;13.526;2024-01-30T09:08:26;97726.31;;;1.45;75.15
66479;BME280;53294;47.912;13.526;2024-01-30T09:10:53;97720.28;;;1.78;74.30
66479;BME280;53294;47.912;13.526;2024-01-30T09:13:20;97717.66;;;2.05;73.20
66479;BME280;53294;47.912;13.526;2024-01-30T09:15:46;97710.94;;;2.29;71.62
66479;BME280;53294;47.912;13.526;2024-01-30T09:18:13;97719.06;;;2.41;70.91
66479;BME280;53294;47.912;13.526;2024-01-30T09:20:40;97722.72;;;2.73;70.50
66479;BME280;53294;47.912;13.526;2024-01-30T09:23:07;97711.44;;;2.98;70.40
66479;BME280;53294;47.912;13.526;2024-01-30T09:25:34;97710.34;;;3.12;68.92
66479;BME280;53294;47.912;13.526;2024-01-30T09:28:01;97716.16;;;3.41;67.94
66479;BME280;53294;47.912;13.526;2024-01-30T09:30:27;97718.69;;;3.68;67.51
66479;BME280;53294;47.912;13.526;2024-01-30T09:32:54;97723.19;;;3.99;66.53
66479;BME280;53294;47.912;13.526;2024-01-30T09:35:21;97715.44;;;4.48;64.94
66479;BME280;53294;47.912;13.526;2024-01-30T09:37:48;97716.84;;;4.94;64.05
66479;BME280;53294;47.912;13.526;2024-01-30T09:40:15;97711.03;;;5.34;61.89
66479;BME280;53294;47.912;13.526;2024-01-30T09:42:47;97717.91;;;5.42;60.97
66479;BME280;53294;47.912;13.526;2024-01-30T09:45:24;97711.34;;;5.45;61.13
66479;BME280;53294;47.912;13.526;2024-01-30T09:47:52;97710.00;;;5.84;60.56
66479;BME280;53294;47.912;13.526;2024-01-30T09:50:20;97710.56;;;6.28;59.55
66479;BME280;53294;47.912;13.526;2024-01-30T09:52:47;97711.78;;;6.68;57.93
66479;BME280;53294;47.912;13.526;2024-01-30T09:55:14;97706.25;;;6.98;57.07
66479;BME280;53294;47.912;13.526;2024-01-30T09:57:41;97710.00;;;7.79;55.88
66479;BME280;53294;47.912;13.526;2024-01-30T10:00:09;97704.28;;;8.38;53.58
66479;BME280;53294;47.912;13.526;2024-01-30T10:02:36;97698.75;;;8.27;52.94
66479;BME280;53294;47.912;13.526;2024-01-30T10:05:03;97689.78;;;8.90;52.30
66479;BME280;53294;47.912;13.526;2024-01-30T10:07:30;97688.31;;;8.99;52.07
66479;BME280;53294;47.912;13.526;2024-01-30T10:09:57;97690.56;;;9.07;50.15
66479;BME280;53294;47.912;13.526;2024-01-30T10:12:27;97687.88;;;9.07;51.04
66479;BME280;53294;47.912;13.526;2024-01-30T10:14:56;97687.06;;;8.85;51.37
66479;BME280;53294;47.912;13.526;2024-01-30T10:17:24;97684.69;;;8.88;50.92
66479;BME280;53294;47.912;13.526;2024-01-30T10:19:59;97679.22;;;9.00;50.89
66479;BME280;53294;47.912;13.526;2024-01-30T10:22:26;97674.59;;;9.62;50.12
66479;BME280;53294;47.912;13.526;2024-01-30T10:24:53;97670.09;;;10.00;49.63
66479;BME280;53294;47.912;13.526;2024-01-30T10:27:26;97664.88;;;10.15;49.35
66479;BME280;53294;47.912;13.526;2024-01-30T10:29:53;97667.69;;;9.71;50.07
66479;BME280;53294;47.912;13.526;2024-01-30T10:32:20;97663.94;;;9.99;49.66
66479;BME280;53294;47.912;13.526;2024-01-30T10:34:47;97667.78;;;9.81;49.49
66479;BME280;53294;47.912;13.526;2024-01-30T10:37:15;97651.06;;;10.01;49.19
66479;BME280;53294;47.912;13.526;2024-01-30T10:39:44;97653.06;;;9.57;50.56
66479;BME280;53294;47.912;13.526;2024-01-30T10:42:12;97662.25;;;9.16;51.81
66479;BME280;53294;47.912;13.526;2024-01-30T10:45:00;97652.53;;;9.10;50.52
66479;BME280;53294;47.912;13.526;2024-01-30T10:47:28;97654.59;;;9.25;50.45
66479;BME280;53294;47.912;13.526;2024-01-30T10:49:56;97650.94;;;9.09;50.13
66479;BME280;53294;47.912;13.526;2024-01-30T10:52:24;97653.75;;;8.80;51.61
66479;BME280;53294;47.912;13.526;2024-01-30T10:54:56;97638.22;;;9.22;49.83
66479;BME280;53294;47.912;13.526;2024-01-30T10:57:24;97647.09;;;9.49;48.98
66479;BME280;53294;47.912;13.526;2024-01-30T10:59:56;97636.66;;;9.53;48.77
66479;BME280;53294;47.912;13.526;2024-01-30T11:02:24;97639.13;;;9.60;48.81
66479;BME280;53294;47.912;13.526;2024-01-30T11:04:56;97630.13;;;9.71;48.16
66479;BME280;53294;47.912;13.526;2024-01-30T11:07:26;97627.06;;;9.89;47.46
66479;BME280;53294;47.912;13.526;2024-01-30T11:10:04;97626.47;;;10.47;46.63
66479;BME280;53294;47.912;13.526;2024-01-30T11:12:32;97630.59;;;10.28;46.66
66479;BME280;53294;47.912;13.526;2024-01-30T11:15:16;97628.53;;;10.35;47.20
66479;BME280;53294;47.912;13.526;2024-01-30T11:20:19;97617.06;;;11.03;45.26
66479;BME280;53294;47.912;13.526;2024-01-30T11:22:47;97608.91;;;10.87;45.03
66479;BME280;53294;47.912;13.526;2024-01-30T11:25:15;97611.19;;;11.16;44.55
66479;BME280;53294;47.912;13.526;2024-01-30T11:27:43;97611.72;;;11.18;43.71
66479;BME280;53294;47.912;13.526;2024-01-30T11:30:11;97608.66;;;10.84;44.58
66479;BME280;53294;47.912;13.526;2024-01-30T11:35:30;97605.00;;;10.57;44.40
66479;BME280;53294;47.912;13.526;2024-01-30T11:37:57;97597.72;;;10.53;44.34
66479;BME280;53294;47.912;13.526;2024-01-30T11:40:27;97605.50;;;10.12;45.29
66479;BME280;53294;47.912;13.526;2024-01-30T11:42:55;97605.16;;;10.03;46.32
66479;BME280;53294;47.912;13.526;2024-01-30T11:45:22;97597.72;;;10.53;44.76
66479;BME280;53294;47.912;13.526;2024-01-30T11:47:49;97598.50;;;10.43;45.21
66479;BME280;53294;47.912;13.526;2024-01-30T11:50:16;97595.72;;;10.33;44.47
66479;BME280;53294;47.912;13.526;2024-01-30T11:52:43;97594.28;;;10.57;45.04
66479;BME280;53294;47.912;13.526;2024-01-30T11:55:10;97590.28;;;10.65;44.92
66479;BME280;53294;47.912;13.526;2024-01-30T11:57:38;97584.63;;;10.62;45.61
66479;BME280;53294;47.912;13.526;2024-01-30T12:00:06;97578.34;;;10.99;45.52
66479;BME280;53294;47.912;13.526;2024-01-30T12:02:37;97579.50;;;11.39;43.94
66479;BME280;53294;47.912;13.526;2024-01-30T12:05:07;97580.06;;;11.51;44.04
66479;BME280;53294;47.912;13.526;2024-01-30T12:07:33;97575.78;;;11.71;43.16
66479;BME280;53294;47.912;13.526;2024-01-30T12:10:01;97571.69;;;11.37;44.11
66479;BME280;53294;47.912;13.526;2024-01-30T12:12:29;97573.31;;;10.59;44.96
66479;BME280;53294;47.912;13.526;2024-01-30T12:14:56;97573.66;;;10.26;46.63
66479;BME280;53294;47.912;13.526;2024-01-30T12:17:33;97567.59;;;10.08;46.95
66479;BME280;53294;47.912;13.526;2024-01-30T12:20:15;97575.66;;;10.08;47.29
66479;BME280;53294;47.912;13.526;2024-01-30T12:22:45;97569.44;;;9.65;48.00
66479;BME280;53294;47.912;13.526;2024-01-30T12:25:16;97573.22;;;9.69;48.20
66479;BME280;53294;47.912;13.526;2024-01-30T12:27:46;97565.25;;;9.74;47.88
66479;BME280;53294;47.912;13.526;2024-01-30T12:30:13;97562.72;;;10.00;47.95
66479;BME280;53294;47.912;13.526;2024-01-30T12:32:41;97565.38;;;9.95;47.08
66479;BME280;53294;47.912;13.526;2024-01-30T12:35:14;97560.03;;;9.95;47.77
66479;BME280;53294;47.912;13.526;2024-01-30T12:37:43;97559.00;;;10.01;47.68
66479;BME280;53294;47.912;13.526;2024-01-30T12:40:11;97560.38;;;10.46;46.94
66479;BME280;53294;47.912;13.526;2024-01-30T12:42:42;97560.94;;;10.53;46.51
66479;BME280;53294;47.912;13.526;2024-01-30T12:45:18;97567.75;;;10.29;47.17
66479;BME280;53294;47.912;13.526;2024-01-30T12:47:49;97565.66;;;10.36;46.99
66479;BME280;53294;47.912;13.526;2024-01-30T12:50:16;97558.06;;;10.22;47.08
66479;BME280;53294;47.912;13.526;2024-01-30T12:52:44;97561.72;;;10.11;47.21
66479;BME280;53294;47.912;13.526;2024-01-30T12:55:15;97563.91;;;9.77;48.49
66479;BME280;53294;47.912;13.526;2024-01-30T12:57:42;97552.94;;;9.83;48.16
66479;BME280;53294;47.912;13.526;2024-01-30T13:00:10;97562.41;;;9.59;48.69